sensor_id;sensor_type;location;lat;lon;timestamp;P1;durP1;ratioP1;P2;durP2;ratioP2
73487;SDS011;61721;42.206;25.320;2023-02-28T00:00:26;10.15;;;5.55;;
73487;SDS011;61721;42.206;25.320;2023-02-28T00:02:56;11.35;;;5.78;;
73487;SDS011;61721;42.206;25.320;2023-02-28T00:05:24;13.90;;;5.82;;
73487;SDS011;61721;42.206;25.320;2023-02-28T00:07:52;10.93;;;5.65;;
73487;SDS011;61721;42.206;25.320;2023-02-28T00:10:21;13.30;;;6.20;;
73487;SDS011;61721;42.206;25.320;2023-02-28T00:12:50;9.90;;;5.45;;
73487;SDS011;61721;42.206;25.320;2023-02-28T00:15:17;12.57;;;6.05;;
73487;SDS011;61721;42.206;25.320;2023-02-28T00:17:45;11.13;;;6.13;;
73487;SDS011;61721;42.206;25.320;2023-02-28T00:20:14;9.98;;;5.90;;
73487;SDS011;61721;42.206;25.320;2023-02-28T00:22:43;12.88;;;6.30;;
73487;SDS011;61721;42.206;25.320;2023-02-28T00:25:12;11.95;;;5.90;;
73487;SDS011;61721;42.206;25.320;2023-02-28T00:27:42;10.77;;;5.45;;
73487;SDS011;61721;42.206;25.320;2023-02-28T00:30:10;9.68;;;5.75;;
73487;SDS011;61721;42.206;25.320;2023-02-28T00:32:39;11.52;;;5.97;;
73487;SDS011;61721;42.206;25.320;2023-02-28T00:35:07;13.88;;;6.45;;
73487;SDS011;61721;42.206;25.320;2023-02-28T00:37:36;12.57;;;5.68;;
73487;SDS011;61721;42.206;25.320;2023-02-28T00:40:04;12.80;;;6.93;;
73487;SDS011;61721;42.206;25.320;2023-02-28T00:42:33;12.63;;;6.32;;
73487;SDS011;61721;42.206;25.320;2023-02-28T00:45:01;13.93;;;6.70;;
73487;SDS011;61721;42.206;25.320;2023-02-28T00:47:30;12.10;;;6.20;;
73487;SDS011;61721;42.206;25.320;2023-02-28T00:49:57;11.02;;;6.75;;
73487;SDS011;61721;42.206;25.320;2023-02-28T00:52:24;14.15;;;6.93;;
73487;SDS011;61721;42.206;25.320;2023-02-28T00:54:53;11.75;;;6.28;;
73487;SDS011;61721;42.206;25.320;2023-02-28T00:57:20;12.20;;;6.70;;
73487;SDS011;61721;42.206;25.320;2023-02-28T00:59:47;16.67;;;7.57;;
73487;SDS011;61721;42.206;25.320;2023-02-28T01:02:15;14.05;;;7.57;;
73487;SDS011;61721;42.206;25.320;2023-02-28T01:04:43;12.70;;;6.93;;
73487;SDS011;61721;42.206;25.320;2023-02-28T01:07:10;14.20;;;6.72;;
73487;SDS011;61721;42.206;25.320;2023-02-28T01:09:37;15.60;;;7.07;;
73487;SDS011;61721;42.206;25.320;2023-02-28T01:12:06;15.00;;;6.82;;
73487;SDS011;61721;42.206;25.320;2023-02-28T01:14:34;12.10;;;7.65;;
73487;SDS011;61721;42.206;25.320;2023-02-28T01:17:01;11.85;;;6.88;;
73487;SDS011;61721;42.206;25.320;2023-02-28T01:19:28;12.82;;;6.50;;
73487;SDS011;61721;42.206;25.320;2023-02-28T01:21:56;17.05;;;7.10;;
73487;SDS011;61721;42.206;25.320;2023-02-28T01:24:23;19.85;;;8.55;;
73487;SDS011;61721;42.206;25.320;2023-02-28T01:26:50;13.55;;;7.15;;
73487;SDS011;61721;42.206;25.320;2023-02-28T01:29:19;15.43;;;7.60;;
73487;SDS011;61721;42.206;25.320;2023-02-28T01:31:47;14.98;;;7.40;;
73487;SDS011;61721;42.206;25.320;2023-02-28T01:34:14;12.40;;;7.28;;
73487;SDS011;61721;42.206;25.320;2023-02-28T01:36:41;15.27;;;7.38;;
73487;SDS011;61721;42.206;25.320;2023-02-28T01:39:08;15.57;;;7.78;;
73487;SDS011;61721;42.206;25.320;2023-02-28T01:41:37;10.57;;;6.72;;
73487;SDS011;61721;42.206;25.320;2023-02-28T01:44:05;15.10;;;7.25;;
73487;SDS011;61721;42.206;25.320;2023-02-28T01:46:35;15.80;;;7.47;;
73487;SDS011;61721;42.206;25.320;2023-02-28T01:49:05;16.52;;;7.88;;
73487;SDS011;61721;42.206;25.320;2023-02-28T01:51:37;14.30;;;6.63;;
73487;SDS011;61721;42.206;25.320;2023-02-28T01:54:12;14.77;;;6.90;;
73487;SDS011;61721;42.206;25.320;2023-02-28T01:56:43;12.68;;;7.22;;
73487;SDS011;61721;42.206;25.320;2023-02-28T01:59:14;15.02;;;6.82;;
73487;SDS011;61721;42.206;25.320;2023-02-28T02:01:48;11.05;;;6.50;;
73487;SDS011;61721;42.206;25.320;2023-02-28T02:04:16;12.23;;;6.45;;
73487;SDS011;61721;42.206;25.320;2023-02-28T02:06:45;12.43;;;6.43;;
73487;SDS011;61721;42.206;25.320;2023-02-28T02:09:14;11.90;;;6.00;;
73487;SDS011;61721;42.206;25.320;2023-02-28T02:11:42;11.88;;;6.57;;
73487;SDS011;61721;42.206;25.320;2023-02-28T02:17:10;14.80;;;5.90;;
73487;SDS011;61721;42.206;25.320;2023-02-28T02:20:01;10.45;;;6.05;;
73487;SDS011;61721;42.206;25.320;2023-02-28T02:26:13;10.10;;;6.13;;
73487;SDS011;61721;42.206;25.320;2023-02-28T02:29:13;11.02;;;5.70;;
73487;SDS011;61721;42.206;25.320;2023-02-28T02:32:09;12.85;;;6.47;;
73487;SDS011;61721;42.206;25.320;2023-02-28T02:35:01;11.98;;;5.75;;
73487;SDS011;61721;42.206;25.320;2023-02-28T02:37:40;12.13;;;5.82;;
73487;SDS011;61721;42.206;25.320;2023-02-28T02:40:14;10.98;;;5.68;;
73487;SDS011;61721;42.206;25.320;2023-02-28T02:42:47;11.40;;;6.07;;
73487;SDS011;61721;42.206;25.320;2023-02-28T02:45:21;11.57;;;5.72;;
73487;SDS011;61721;42.206;25.320;2023-02-28T02:47:51;10.90;;;5.78;;
73487;SDS011;61721;42.206;25.320;2023-02-28T02:50:22;11.25;;;5.50;;
73487;SDS011;61721;42.206;25.320;2023-02-28T02:52:53;12.50;;;6.05;;
73487;SDS011;61721;42.206;25.320;2023-02-28T02:55:24;11.30;;;5.95;;
73487;SDS011;61721;42.206;25.320;2023-02-28T02:57:52;11.95;;;5.32;;
73487;SDS011;61721;42.206;25.320;2023-02-28T03:00:23;11.45;;;6.05;;
73487;SDS011;61721;42.206;25.320;2023-02-28T03:02:56;10.88;;;5.78;;
73487;SDS011;61721;42.206;25.320;2023-02-28T03:05:27;12.05;;;6.05;;
73487;SDS011;61721;42.206;25.320;2023-02-28T03:07:58;13.30;;;5.88;;
73487;SDS011;61721;42.206;25.320;2023-02-28T03:10:28;9.80;;;5.57;;
73487;SDS011;61721;42.206;25.320;2023-02-28T03:16:16;10.40;;;5.90;;
73487;SDS011;61721;42.206;25.320;2023-02-28T03:18:57;11.90;;;5.60;;
73487;SDS011;61721;42.206;25.320;2023-02-28T03:21:45;10.75;;;5.45;;
73487;SDS011;61721;42.206;25.320;2023-02-28T03:24:23;11.82;;;6.70;;
73487;SDS011;61721;42.206;25.320;2023-02-28T03:26:58;14.05;;;6.53;;
73487;SDS011;61721;42.206;25.320;2023-02-28T03:29:33;9.90;;;5.70;;
73487;SDS011;61721;42.206;25.320;2023-02-28T03:32:05;12.00;;;6.00;;
73487;SDS011;61721;42.206;25.320;2023-02-28T03:34:43;12.32;;;6.03;;
73487;SDS011;61721;42.206;25.320;2023-02-28T03:37:18;12.70;;;6.03;;
73487;SDS011;61721;42.206;25.320;2023-02-28T03:39:49;10.82;;;5.38;;
73487;SDS011;61721;42.206;25.320;2023-02-28T03:42:21;13.50;;;6.25;;
73487;SDS011;61721;42.206;25.320;2023-02-28T03:44:53;12.35;;;6.05;;
73487;SDS011;61721;42.206;25.320;2023-02-28T03:47:24;13.35;;;5.97;;
73487;SDS011;61721;42.206;25.320;2023-02-28T03:49:56;11.35;;;5.43;;
73487;SDS011;61721;42.206;25.320;2023-02-28T03:54:56;9.30;;;5.13;;
73487;SDS011;61721;42.206;25.320;2023-02-28T03:57:33;11.85;;;5.57;;
73487;SDS011;61721;42.206;25.320;2023-02-28T04:00:06;10.45;;;5.40;;
73487;SDS011;61721;42.206;25.320;2023-02-28T04:02:38;10.70;;;5.55;;
73487;SDS011;61721;42.206;25.320;2023-02-28T04:05:06;9.52;;;5.25;;
73487;SDS011;61721;42.206;25.320;2023-02-28T04:07:39;14.02;;;5.65;;
73487;SDS011;61721;42.206;25.320;2023-02-28T04:10:07;9.95;;;5.47;;
73487;SDS011;61721;42.206;25.320;2023-02-28T04:12:37;10.93;;;5.30;;
73487;SDS011;61721;42.206;25.320;2023-02-28T04:15:05;10.48;;;5.32;;
73487;SDS011;61721;42.206;25.320;2023-02-28T04:17:35;11.07;;;5.47;;
73487;SDS011;61721;42.206;25.320;2023-02-28T04:20:03;10.10;;;5.15;;
73487;SDS011;61721;42.206;25.320;2023-02-28T04:22:35;11.10;;;5.43;;
73487;SDS011;61721;42.206;25.320;2023-02-28T04:25:05;11.90;;;5.38;;
73487;SDS011;61721;42.206;25.320;2023-02-28T04:27:33;9.70;;;5.30;;
73487;SDS011;61721;42.206;25.320;2023-02-28T04:30:00;10.68;;;5.43;;
73487;SDS011;61721;42.206;25.320;2023-02-28T04:32:27;11.65;;;5.22;;
73487;SDS011;61721;42.206;25.320;2023-02-28T04:34:54;11.82;;;6.05;;
73487;SDS011;61721;42.206;25.320;2023-02-28T04:37:22;11.43;;;5.47;;
73487;SDS011;61721;42.206;25.320;2023-02-28T04:39:53;10.95;;;5.05;;
73487;SDS011;61721;42.206;25.320;2023-02-28T04:42:22;10.82;;;5.55;;
73487;SDS011;61721;42.206;25.320;2023-02-28T04:44:49;11.30;;;6.18;;
73487;SDS011;61721;42.206;25.320;2023-02-28T04:47:17;11.50;;;5.75;;
73487;SDS011;61721;42.206;25.320;2023-02-28T04:49:44;14.85;;;5.72;;
73487;SDS011;61721;42.206;25.320;2023-02-28T04:52:11;9.85;;;5.70;;
73487;SDS011;61721;42.206;25.320;2023-02-28T04:54:38;9.68;;;5.40;;
73487;SDS011;61721;42.206;25.320;2023-02-28T04:57:05;13.10;;;5.60;;
73487;SDS011;61721;42.206;25.320;2023-02-28T04:59:34;9.95;;;5.47;;
73487;SDS011;61721;42.206;25.320;2023-02-28T05:02:01;10.35;;;5.47;;
73487;SDS011;61721;42.206;25.320;2023-02-28T05:04:32;10.88;;;5.93;;
73487;SDS011;61721;42.206;25.320;2023-02-28T05:06:59;10.82;;;6.30;;
73487;SDS011;61721;42.206;25.320;2023-02-28T05:09:27;12.48;;;6.40;;
73487;SDS011;61721;42.206;25.320;2023-02-28T05:11:54;11.57;;;6.82;;
73487;SDS011;61721;42.206;25.320;2023-02-28T05:14:22;11.00;;;5.85;;
73487;SDS011;61721;42.206;25.320;2023-02-28T05:16:52;14.05;;;7.22;;
73487;SDS011;61721;42.206;25.320;2023-02-28T05:19:19;12.18;;;6.85;;
73487;SDS011;61721;42.206;25.320;2023-02-28T05:21:51;13.25;;;6.80;;
73487;SDS011;61721;42.206;25.320;2023-02-28T05:24:20;11.55;;;6.07;;
73487;SDS011;61721;42.206;25.320;2023-02-28T05:26:49;9.85;;;6.13;;
73487;SDS011;61721;42.206;25.320;2023-02-28T05:29:18;11.70;;;7.15;;
73487;SDS011;61721;42.206;25.320;2023-02-28T05:31:45;12.82;;;7.10;;
73487;SDS011;61721;42.206;25.320;2023-02-28T05:34:13;12.05;;;6.78;;
73487;SDS011;61721;42.206;25.320;2023-02-28T05:36:41;16.00;;;8.23;;
73487;SDS011;61721;42.206;25.320;2023-02-28T05:39:08;13.93;;;7.32;;
73487;SDS011;61721;42.206;25.320;2023-02-28T05:41:38;12.38;;;6.15;;
73487;SDS011;61721;42.206;25.320;2023-02-28T05:44:06;12.82;;;7.05;;
73487;SDS011;61721;42.206;25.320;2023-02-28T05:46:34;11.05;;;6.28;;
73487;SDS011;61721;42.206;25.320;2023-02-28T05:49:01;10.95;;;6.20;;
73487;SDS011;61721;42.206;25.320;2023-02-28T05:51:31;13.95;;;6.57;;
73487;SDS011;61721;42.206;25.320;2023-02-28T05:53:59;12.55;;;6.43;;
73487;SDS011;61721;42.206;25.320;2023-02-28T05:56:27;11.13;;;6.43;;
73487;SDS011;61721;42.206;25.320;2023-02-28T05:58:55;12.88;;;6.78;;
73487;SDS011;61721;42.206;25.320;2023-02-28T06:01:23;13.48;;;6.65;;
73487;SDS011;61721;42.206;25.320;2023-02-28T06:03:58;13.75;;;6.20;;
73487;SDS011;61721;42.206;25.320;2023-02-28T06:06:26;12.35;;;6.70;;
73487;SDS011;61721;42.206;25.320;2023-02-28T06:08:56;11.98;;;6.82;;
73487;SDS011;61721;42.206;25.320;2023-02-28T06:11:23;10.30;;;5.93;;
73487;SDS011;61721;42.206;25.320;2023-02-28T06:13:53;13.27;;;6.95;;
73487;SDS011;61721;42.206;25.320;2023-02-28T06:16:21;9.38;;;6.22;;
73487;SDS011;61721;42.206;25.320;2023-02-28T06:18:49;11.05;;;6.30;;
73487;SDS011;61721;42.206;25.320;2023-02-28T06:21:17;12.77;;;7.53;;
73487;SDS011;61721;42.206;25.320;2023-02-28T06:23:45;14.18;;;8.15;;
73487;SDS011;61721;42.206;25.320;2023-02-28T06:26:13;12.85;;;7.30;;
73487;SDS011;61721;42.206;25.320;2023-02-28T06:28:41;12.32;;;7.13;;
73487;SDS011;61721;42.206;25.320;2023-02-28T06:31:08;12.05;;;6.97;;
73487;SDS011;61721;42.206;25.320;2023-02-28T06:33:37;15.02;;;7.53;;
73487;SDS011;61721;42.206;25.320;2023-02-28T06:36:05;13.45;;;7.38;;
73487;SDS011;61721;42.206;25.320;2023-02-28T06:38:33;12.25;;;6.72;;
73487;SDS011;61721;42.206;25.320;2023-02-28T06:41:02;13.45;;;6.75;;
73487;SDS011;61721;42.206;25.320;2023-02-28T06:43:33;10.95;;;6.85;;
73487;SDS011;61721;42.206;25.320;2023-02-28T06:46:03;10.82;;;6.00;;
73487;SDS011;61721;42.206;25.320;2023-02-28T06:48:32;12.63;;;6.22;;
73487;SDS011;61721;42.206;25.320;2023-02-28T06:51:03;7.53;;;4.85;;
73487;SDS011;61721;42.206;25.320;2023-02-28T06:53:32;9.27;;;5.00;;
73487;SDS011;61721;42.206;25.320;2023-02-28T06:55:59;12.07;;;6.45;;
73487;SDS011;61721;42.206;25.320;2023-02-28T06:58:32;11.57;;;7.25;;
73487;SDS011;61721;42.206;25.320;2023-02-28T07:01:00;12.63;;;6.63;;
73487;SDS011;61721;42.206;25.320;2023-02-28T07:03:28;9.50;;;5.97;;
73487;SDS011;61721;42.206;25.320;2023-02-28T07:05:58;10.63;;;5.80;;
73487;SDS011;61721;42.206;25.320;2023-02-28T07:08:25;11.00;;;5.65;;
73487;SDS011;61721;42.206;25.320;2023-02-28T07:10:53;11.48;;;5.38;;
73487;SDS011;61721;42.206;25.320;2023-02-28T07:13:21;9.40;;;5.65;;
73487;SDS011;61721;42.206;25.320;2023-02-28T07:15:56;9.63;;;5.07;;
73487;SDS011;61721;42.206;25.320;2023-02-28T07:18:25;12.70;;;6.30;;
73487;SDS011;61721;42.206;25.320;2023-02-28T07:20:52;9.55;;;5.75;;
73487;SDS011;61721;42.206;25.320;2023-02-28T07:23:20;8.45;;;5.13;;
73487;SDS011;61721;42.206;25.320;2023-02-28T07:25:48;7.90;;;5.00;;
73487;SDS011;61721;42.206;25.320;2023-02-28T07:28:16;12.93;;;5.90;;
73487;SDS011;61721;42.206;25.320;2023-02-28T07:30:43;9.77;;;5.90;;
73487;SDS011;61721;42.206;25.320;2023-02-28T07:33:12;13.27;;;6.25;;
73487;SDS011;61721;42.206;25.320;2023-02-28T07:35:39;18.73;;;6.35;;
73487;SDS011;61721;42.206;25.320;2023-02-28T07:38:06;10.45;;;6.65;;
73487;SDS011;61721;42.206;25.320;2023-02-28T07:40:34;12.10;;;5.97;;
73487;SDS011;61721;42.206;25.320;2023-02-28T07:43:01;12.93;;;6.10;;
73487;SDS011;61721;42.206;25.320;2023-02-28T07:45:29;16.67;;;7.07;;
73487;SDS011;61721;42.206;25.320;2023-02-28T07:47:59;12.98;;;6.88;;
73487;SDS011;61721;42.206;25.320;2023-02-28T07:50:29;10.00;;;6.18;;
73487;SDS011;61721;42.206;25.320;2023-02-28T07:52:56;10.70;;;6.95;;
73487;SDS011;61721;42.206;25.320;2023-02-28T07:55:24;14.13;;;7.20;;
73487;SDS011;61721;42.206;25.320;2023-02-28T07:57:51;11.15;;;6.60;;
73487;SDS011;61721;42.206;25.320;2023-02-28T08:00:19;10.98;;;6.85;;
73487;SDS011;61721;42.206;25.320;2023-02-28T08:02:46;9.15;;;5.85;;
73487;SDS011;61721;42.206;25.320;2023-02-28T08:05:14;12.73;;;6.65;;
73487;SDS011;61721;42.206;25.320;2023-02-28T08:07:42;9.68;;;6.07;;
73487;SDS011;61721;42.206;25.320;2023-02-28T08:10:10;11.07;;;5.82;;
73487;SDS011;61721;42.206;25.320;2023-02-28T08:12:37;9.00;;;6.05;;
73487;SDS011;61721;42.206;25.320;2023-02-28T08:15:06;10.68;;;6.97;;
73487;SDS011;61721;42.206;25.320;2023-02-28T08:17:35;16.05;;;7.40;;
73487;SDS011;61721;42.206;25.320;2023-02-28T08:20:02;11.35;;;7.03;;
73487;SDS011;61721;42.206;25.320;2023-02-28T08:22:30;11.80;;;6.78;;
73487;SDS011;61721;42.206;25.320;2023-02-28T08:24:59;12.82;;;7.15;;
73487;SDS011;61721;42.206;25.320;2023-02-28T08:27:26;10.93;;;7.13;;
73487;SDS011;61721;42.206;25.320;2023-02-28T08:29:53;11.30;;;6.22;;
73487;SDS011;61721;42.206;25.320;2023-02-28T08:32:24;11.32;;;6.72;;
73487;SDS011;61721;42.206;25.320;2023-02-28T08:34:51;12.55;;;7.10;;
73487;SDS011;61721;42.206;25.320;2023-02-28T08:37:18;10.70;;;6.78;;
73487;SDS011;61721;42.206;25.320;2023-02-28T08:39:45;11.73;;;7.05;;
73487;SDS011;61721;42.206;25.320;2023-02-28T08:42:15;14.07;;;7.63;;
73487;SDS011;61721;42.206;25.320;2023-02-28T08:44:42;21.10;;;8.20;;
73487;SDS011;61721;42.206;25.320;2023-02-28T08:47:09;15.40;;;7.57;;
73487;SDS011;61721;42.206;25.320;2023-02-28T08:49:36;12.15;;;7.45;;
73487;SDS011;61721;42.206;25.320;2023-02-28T08:52:04;13.38;;;7.55;;
73487;SDS011;61721;42.206;25.320;2023-02-28T08:54:31;13.10;;;7.10;;
73487;SDS011;61721;42.206;25.320;2023-02-28T08:56:59;14.25;;;6.90;;
73487;SDS011;61721;42.206;25.320;2023-02-28T08:59:28;13.20;;;7.38;;
73487;SDS011;61721;42.206;25.320;2023-02-28T09:01:56;13.38;;;7.95;;
73487;SDS011;61721;42.206;25.320;2023-02-28T09:04:23;11.23;;;6.60;;
73487;SDS011;61721;42.206;25.320;2023-02-28T09:06:50;12.90;;;7.80;;
73487;SDS011;61721;42.206;25.320;2023-02-28T09:09:17;14.55;;;7.28;;
73487;SDS011;61721;42.206;25.320;2023-02-28T09:11:44;13.57;;;7.45;;
73487;SDS011;61721;42.206;25.320;2023-02-28T09:14:11;10.48;;;7.03;;
73487;SDS011;61721;42.206;25.320;2023-02-28T09:16:40;16.17;;;7.05;;
73487;SDS011;61721;42.206;25.320;2023-02-28T09:19:10;11.45;;;7.53;;
73487;SDS011;61721;42.206;25.320;2023-02-28T09:21:37;16.58;;;7.75;;
73487;SDS011;61721;42.206;25.320;2023-02-28T09:24:05;14.70;;;8.10;;
73487;SDS011;61721;42.206;25.320;2023-02-28T09:26:32;12.25;;;7.43;;
73487;SDS011;61721;42.206;25.320;2023-02-28T09:29:00;16.75;;;7.72;;
73487;SDS011;61721;42.206;25.320;2023-02-28T09:31:28;14.95;;;7.25;;
73487;SDS011;61721;42.206;25.320;2023-02-28T09:33:57;14.55;;;7.28;;
73487;SDS011;61721;42.206;25.320;2023-02-28T09:36:26;11.68;;;7.28;;
73487;SDS011;61721;42.206;25.320;2023-02-28T09:38:55;14.85;;;7.97;;
73487;SDS011;61721;42.206;25.320;2023-02-28T09:41:23;13.88;;;7.75;;
73487;SDS011;61721;42.206;25.320;2023-02-28T09:43:53;11.02;;;7.28;;
73487;SDS011;61721;42.206;25.320;2023-02-28T09:46:30;13.60;;;7.43;;
73487;SDS011;61721;42.206;25.320;2023-02-28T09:49:02;13.00;;;7.95;;
73487;SDS011;61721;42.206;25.320;2023-02-28T09:51:37;12.25;;;7.10;;
73487;SDS011;61721;42.206;25.320;2023-02-28T09:54:15;14.35;;;7.55;;
73487;SDS011;61721;42.206;25.320;2023-02-28T09:59:13;13.55;;;8.23;;
73487;SDS011;61721;42.206;25.320;2023-02-28T10:01:50;13.40;;;7.10;;
73487;SDS011;61721;42.206;25.320;2023-02-28T10:04:32;13.95;;;7.32;;
73487;SDS011;61721;42.206;25.320;2023-02-28T10:07:11;13.70;;;7.47;;
73487;SDS011;61721;42.206;25.320;2023-02-28T10:09:49;14.30;;;7.30;;
73487;SDS011;61721;42.206;25.320;2023-02-28T10:12:22;12.75;;;7.00;;
73487;SDS011;61721;42.206;25.320;2023-02-28T10:14:52;15.18;;;7.78;;
73487;SDS011;61721;42.206;25.320;2023-02-28T10:17:21;14.15;;;7.30;;
73487;SDS011;61721;42.206;25.320;2023-02-28T10:19:56;17.13;;;8.27;;
73487;SDS011;61721;42.206;25.320;2023-02-28T10:22:34;13.63;;;7.75;;
73487;SDS011;61721;42.206;25.320;2023-02-28T10:25:11;13.32;;;7.57;;
73487;SDS011;61721;42.206;25.320;2023-02-28T10:27:44;12.68;;;6.65;;
73487;SDS011;61721;42.206;25.320;2023-02-28T10:30:12;12.32;;;6.82;;
73487;SDS011;61721;42.206;25.320;2023-02-28T10:32:41;18.77;;;7.50;;
73487;SDS011;61721;42.206;25.320;2023-02-28T10:35:17;15.63;;;8.23;;
73487;SDS011;61721;42.206;25.320;2023-02-28T10:37:46;27.92;;;8.07;;
73487;SDS011;61721;42.206;25.320;2023-02-28T10:40:31;14.13;;;7.85;;
73487;SDS011;61721;42.206;25.320;2023-02-28T10:43:01;11.50;;;7.00;;
73487;SDS011;61721;42.206;25.320;2023-02-28T10:45:31;11.90;;;7.25;;
73487;SDS011;61721;42.206;25.320;2023-02-28T10:48:01;14.10;;;6.97;;
73487;SDS011;61721;42.206;25.320;2023-02-28T10:50:34;11.63;;;6.82;;
73487;SDS011;61721;42.206;25.320;2023-02-28T10:53:24;14.45;;;7.20;;
73487;SDS011;61721;42.206;25.320;2023-02-28T10:55:58;13.93;;;7.70;;
73487;SDS011;61721;42.206;25.320;2023-02-28T10:58:27;14.13;;;6.82;;
73487;SDS011;61721;42.206;25.320;2023-02-28T11:00:56;18.67;;;6.40;;
73487;SDS011;61721;42.206;25.320;2023-02-28T11:03:25;11.35;;;6.95;;
73487;SDS011;61721;42.206;25.320;2023-02-28T11:05:58;10.38;;;6.35;;
73487;SDS011;61721;42.206;25.320;2023-02-28T11:08:31;12.80;;;6.90;;
73487;SDS011;61721;42.206;25.320;2023-02-28T11:11:00;11.82;;;6.70;;
73487;SDS011;61721;42.206;25.320;2023-02-28T11:13:32;12.35;;;6.85;;
73487;SDS011;61721;42.206;25.320;2023-02-28T11:16:03;11.18;;;6.57;;
73487;SDS011;61721;42.206;25.320;2023-02-28T11:18:34;12.48;;;6.82;;
73487;SDS011;61721;42.206;25.320;2023-02-28T11:21:07;11.88;;;6.88;;
73487;SDS011;61721;42.206;25.320;2023-02-28T11:23:36;14.73;;;7.43;;
73487;SDS011;61721;42.206;25.320;2023-02-28T11:26:07;13.68;;;7.40;;
73487;SDS011;61721;42.206;25.320;2023-02-28T11:28:39;12.63;;;7.57;;
73487;SDS011;61721;42.206;25.320;2023-02-28T11:31:15;12.90;;;7.88;;
73487;SDS011;61721;42.206;25.320;2023-02-28T11:33:45;12.63;;;7.28;;
73487;SDS011;61721;42.206;25.320;2023-02-28T11:36:18;13.77;;;7.70;;
73487;SDS011;61721;42.206;25.320;2023-02-28T11:38:49;11.77;;;6.85;;
73487;SDS011;61721;42.206;25.320;2023-02-28T11:41:24;12.07;;;7.53;;
73487;SDS011;61721;42.206;25.320;2023-02-28T11:44:05;13.10;;;7.88;;
73487;SDS011;61721;42.206;25.320;2023-02-28T11:46:47;11.85;;;6.63;;
73487;SDS011;61721;42.206;25.320;2023-02-28T11:49:20;11.18;;;7.15;;
73487;SDS011;61721;42.206;25.320;2023-02-28T11:51:59;12.60;;;7.53;;
73487;SDS011;61721;42.206;25.320;2023-02-28T11:54:35;11.55;;;6.68;;
73487;SDS011;61721;42.206;25.320;2023-02-28T11:57:24;12.65;;;6.38;;
73487;SDS011;61721;42.206;25.320;2023-02-28T12:00:06;11.77;;;7.15;;
73487;SDS011;61721;42.206;25.320;2023-02-28T12:02:51;12.05;;;8.02;;
73487;SDS011;61721;42.206;25.320;2023-02-28T12:05:29;12.18;;;6.47;;
73487;SDS011;61721;42.206;25.320;2023-02-28T12:08:06;11.48;;;7.00;;
73487;SDS011;61721;42.206;25.320;2023-02-28T12:10:44;11.10;;;7.40;;
73487;SDS011;61721;42.206;25.320;2023-02-28T12:13:24;23.00;;;13.93;;
73487;SDS011;61721;42.206;25.320;2023-02-28T12:16:11;13.27;;;6.82;;
73487;SDS011;61721;42.206;25.320;2023-02-28T12:19:07;12.32;;;8.15;;
73487;SDS011;61721;42.206;25.320;2023-02-28T12:21:46;11.82;;;6.97;;
73487;SDS011;61721;42.206;25.320;2023-02-28T12:24:38;11.88;;;5.85;;
73487;SDS011;61721;42.206;25.320;2023-02-28T12:27:15;12.68;;;6.30;;
73487;SDS011;61721;42.206;25.320;2023-02-28T12:29:48;11.65;;;6.60;;
73487;SDS011;61721;42.206;25.320;2023-02-28T12:32:21;12.98;;;7.20;;
73487;SDS011;61721;42.206;25.320;2023-02-28T12:34:54;12.18;;;7.63;;
73487;SDS011;61721;42.206;25.320;2023-02-28T12:37:27;12.35;;;7.50;;
73487;SDS011;61721;42.206;25.320;2023-02-28T12:40:03;10.73;;;6.63;;
73487;SDS011;61721;42.206;25.320;2023-02-28T12:42:36;11.82;;;6.32;;
73487;SDS011;61721;42.206;25.320;2023-02-28T12:45:08;16.00;;;7.65;;
73487;SDS011;61721;42.206;25.320;2023-02-28T12:47:40;12.93;;;7.63;;
73487;SDS011;61721;42.206;25.320;2023-02-28T12:50:10;13.70;;;8.13;;
73487;SDS011;61721;42.206;25.320;2023-02-28T12:52:39;14.77;;;8.25;;
73487;SDS011;61721;42.206;25.320;2023-02-28T12:55:17;12.05;;;7.45;;
73487;SDS011;61721;42.206;25.320;2023-02-28T12:57:52;15.15;;;7.00;;
73487;SDS011;61721;42.206;25.320;2023-02-28T13:00:29;12.00;;;7.03;;
73487;SDS011;61721;42.206;25.320;2023-02-28T13:03:09;12.85;;;7.07;;
73487;SDS011;61721;42.206;25.320;2023-02-28T13:08:45;13.80;;;8.10;;
73487;SDS011;61721;42.206;25.320;2023-02-28T13:11:40;12.85;;;7.53;;
73487;SDS011;61721;42.206;25.320;2023-02-28T13:14:25;14.23;;;7.50;;
73487;SDS011;61721;42.206;25.320;2023-02-28T13:17:02;12.15;;;7.63;;
73487;SDS011;61721;42.206;25.320;2023-02-28T13:19:37;11.98;;;7.90;;
73487;SDS011;61721;42.206;25.320;2023-02-28T13:22:15;11.05;;;6.85;;
73487;SDS011;61721;42.206;25.320;2023-02-28T13:24:45;12.93;;;7.93;;
73487;SDS011;61721;42.206;25.320;2023-02-28T13:33:24;12.68;;;6.38;;
73487;SDS011;61721;42.206;25.320;2023-02-28T13:38:52;9.32;;;6.22;;
73487;SDS011;61721;42.206;25.320;2023-02-28T13:44:13;13.15;;;7.50;;
73487;SDS011;61721;42.206;25.320;2023-02-28T13:49:47;13.80;;;7.50;;
73487;SDS011;61721;42.206;25.320;2023-02-28T13:52:18;12.52;;;7.32;;
73487;SDS011;61721;42.206;25.320;2023-02-28T13:54:51;11.50;;;6.90;;
73487;SDS011;61721;42.206;25.320;2023-02-28T13:57:31;11.18;;;7.00;;
73487;SDS011;61721;42.206;25.320;2023-02-28T14:00:16;14.45;;;7.80;;
73487;SDS011;61721;42.206;25.320;2023-02-28T14:02:54;17.33;;;9.23;;
73487;SDS011;61721;42.206;25.320;2023-02-28T14:05:39;12.40;;;7.10;;
73487;SDS011;61721;42.206;25.320;2023-02-28T14:08:07;13.38;;;7.45;;
73487;SDS011;61721;42.206;25.320;2023-02-28T14:10:42;16.85;;;7.78;;
73487;SDS011;61721;42.206;25.320;2023-02-28T14:15:56;14.48;;;7.28;;
73487;SDS011;61721;42.206;25.320;2023-02-28T14:18:28;15.43;;;7.70;;
73487;SDS011;61721;42.206;25.320;2023-02-28T14:21:01;12.63;;;7.03;;
73487;SDS011;61721;42.206;25.320;2023-02-28T14:23:44;16.08;;;8.95;;
73487;SDS011;61721;42.206;25.320;2023-02-28T14:29:38;17.38;;;8.95;;
73487;SDS011;61721;42.206;25.320;2023-02-28T14:32:27;14.43;;;8.20;;
73487;SDS011;61721;42.206;25.320;2023-02-28T14:35:05;15.95;;;8.85;;
73487;SDS011;61721;42.206;25.320;2023-02-28T14:37:46;18.95;;;9.00;;
73487;SDS011;61721;42.206;25.320;2023-02-28T14:40:14;18.15;;;9.43;;
73487;SDS011;61721;42.206;25.320;2023-02-28T14:42:46;15.77;;;9.30;;
73487;SDS011;61721;42.206;25.320;2023-02-28T14:45:19;15.20;;;8.07;;
73487;SDS011;61721;42.206;25.320;2023-02-28T14:47:50;18.23;;;9.23;;
73487;SDS011;61721;42.206;25.320;2023-02-28T14:50:18;20.08;;;9.50;;
73487;SDS011;61721;42.206;25.320;2023-02-28T14:52:50;16.95;;;9.05;;
73487;SDS011;61721;42.206;25.320;2023-02-28T14:55:22;19.52;;;8.30;;
73487;SDS011;61721;42.206;25.320;2023-02-28T14:57:53;22.00;;;9.45;;
73487;SDS011;61721;42.206;25.320;2023-02-28T15:00:22;16.65;;;9.55;;
73487;SDS011;61721;42.206;25.320;2023-02-28T15:02:53;16.90;;;8.60;;
73487;SDS011;61721;42.206;25.320;2023-02-28T15:05:30;15.82;;;8.27;;
73487;SDS011;61721;42.206;25.320;2023-02-28T15:08:06;16.27;;;8.13;;
73487;SDS011;61721;42.206;25.320;2023-02-28T15:10:39;15.63;;;7.70;;
73487;SDS011;61721;42.206;25.320;2023-02-28T15:13:11;16.40;;;7.78;;
73487;SDS011;61721;42.206;25.320;2023-02-28T15:15:41;15.63;;;7.55;;
73487;SDS011;61721;42.206;25.320;2023-02-28T15:18:15;18.92;;;7.80;;
73487;SDS011;61721;42.206;25.320;2023-02-28T15:20:52;13.18;;;6.65;;
73487;SDS011;61721;42.206;25.320;2023-02-28T15:23:20;13.15;;;6.80;;
73487;SDS011;61721;42.206;25.320;2023-02-28T15:25:48;15.43;;;7.90;;